Скопје, Macedonia

05:31 PM CEST на 26 Април, 2017 (GMT +0200)
airport Alexander the Great | | Change Station

Elev 780 ft 41.97 °N, 21.61 °E | Updated 8 seconds ago

Ведро
Ведро
75.4 °F
Feels Like 77 °F
С
0.0
Ветер Променлив Ветер from Север
Gusts 0.0 mph

Денес
High -- | Low -- °F
--% Chance of Precip.
Вчера
High -- | Low -- °F
Precip. -- инчи
Притисок 29.95 инчи
Видливост -9999.0 миљи
Облаци
Индекс на топлина 77 °F
Точка на kондензација 42 °F
Влажност 30%
Дожд 0.00 инчи
Височина на снег Not available.
5:36 AM 7:27 PM
Млада Месечината, 0% visible
METAR LWSK 261500Z 14009KT CAVOK 25/03 Q1014 NOSIG
Притисок 29.95 инчи
Видливост -9999.0 миљи
Облаци
Индекс на топлина 77 °F
Точка на kондензација 42 °F
Влажност 30%
Дожд 0.00 инчи
Височина на снег Not available.
5:36 AM 7:27 PM
Млада Месечината, 0% visible
METAR LWSK 261500Z 14009KT CAVOK 25/03 Q1014 NOSIG

Get Severe Weather Alerts

Thanks for signing up!

Be on the lookout for a verification email in your inbox.

You'll start receiving the daily forecast at 8 AM.

×

10-Day Weather Forecast

×

Almanac

Астрономијата

Apr. 26, 2017 Изгревање Заоѓање
Актуелно време
Граѓанскиот самрак
Наутички самрак
Астрономски самрак
Месечината
Должина на видливата светлина
Должина на денот
Tomorrow will be .
, % of the Moon is Illuminated

Екстреми денес

Country Highs Country Lows

Community

WunderPhotos

WunderBlog® & News

Nearby

Квалитетот на воздухот

  Квалитетот на воздухот AQ индекс Загадувач
Not available.

Височина на снег

Station Depth Висина

Earthquake Activity

Град Distance Mag. Time & Date
Minimum magnitude displayed is 2.5.

Coastal Water Temperatures

Место Температура

Stations

Nearby Weather Stations

Локација на станицата Темп. Лични чувство за темп. со ветерот Точка на kондензација Влажност Ветер Precip. Elev Ажурирани Тип